createdAt,value
2023-03-01T00:01:56.515Z,20.33
2023-03-01T00:04:23.652Z,25.40
2023-03-01T00:06:50.769Z,24.70
2023-03-01T00:09:17.824Z,25.85
2023-03-01T00:11:44.876Z,24.55
2023-03-01T00:14:12.101Z,23.52
2023-03-01T00:16:42.508Z,22.73
2023-03-01T00:19:10.005Z,27.35
2023-03-01T00:21:37.249Z,22.63
2023-03-01T00:24:04.412Z,23.20
2023-03-01T00:26:31.763Z,26.15
2023-03-01T00:28:59.442Z,25.17
2023-03-01T00:31:27.241Z,24.60
2023-03-01T00:33:58.300Z,26.42
2023-03-01T00:36:29.639Z,23.42
2023-03-01T00:38:57.110Z,27.00
2023-03-01T00:41:24.335Z,25.67
2023-03-01T00:43:51.478Z,24.60
2023-03-01T00:46:19.934Z,26.27
2023-03-01T00:48:47.194Z,27.48
2023-03-01T00:51:14.198Z,29.75
2023-03-01T00:53:41.285Z,26.52
2023-03-01T00:56:08.688Z,23.92
2023-03-01T00:58:35.850Z,25.85
2023-03-01T01:01:02.954Z,23.85
2023-03-01T01:03:29.995Z,25.33
2023-03-01T01:05:57.092Z,25.10
2023-03-01T01:08:24.143Z,25.92
2023-03-01T01:10:51.237Z,24.00
2023-03-01T01:13:18.294Z,29.30
2023-03-01T01:15:45.392Z,31.77
2023-03-01T01:18:12.422Z,30.73
2023-03-01T01:20:39.504Z,28.08
2023-03-01T01:23:07.545Z,26.83
2023-03-01T01:25:36.560Z,24.38
2023-03-01T01:28:03.729Z,27.85
2023-03-01T01:30:30.797Z,27.83
2023-03-01T01:32:57.841Z,28.85
2023-03-01T01:35:25.565Z,30.38
2023-03-01T01:37:52.638Z,32.28
2023-03-01T01:40:19.753Z,30.75
2023-03-01T01:42:46.929Z,27.45
2023-03-01T01:45:26.270Z,29.92
2023-03-01T01:47:53.408Z,24.67
2023-03-01T01:50:20.490Z,31.85
2023-03-01T01:52:47.489Z,27.00
2023-03-01T01:55:16.233Z,29.42
2023-03-01T01:57:55.339Z,26.35
2023-03-01T02:00:23.543Z,29.52
2023-03-01T02:02:52.883Z,28.95
2023-03-01T02:05:22.542Z,31.85
2023-03-01T02:07:49.589Z,29.13
2023-03-01T02:10:16.840Z,27.65
2023-03-01T02:12:43.928Z,28.45
2023-03-01T02:15:11.152Z,34.97
2023-03-01T02:17:38.258Z,32.95
2023-03-01T02:20:17.548Z,28.52
2023-03-01T02:22:45.046Z,27.67
2023-03-01T02:25:21.123Z,32.13
2023-03-01T02:28:03.299Z,30.92
2023-03-01T02:30:30.396Z,28.35
2023-03-01T02:33:03.592Z,29.88
2023-03-01T02:35:31.068Z,27.38
2023-03-01T02:38:01.637Z,31.42
2023-03-01T02:42:56.548Z,27.73
2023-03-01T02:45:24.049Z,27.77
2023-03-01T02:47:51.105Z,31.00
2023-03-01T02:50:21.004Z,30.50
2023-03-01T02:52:48.967Z,30.70
2023-03-01T02:55:16.295Z,28.40
2023-03-01T02:57:44.860Z,28.17
2023-03-01T03:00:20.303Z,30.98
2023-03-01T03:02:48.206Z,30.95
2023-03-01T03:05:18.752Z,30.17
2023-03-01T03:10:14.442Z,30.83
2023-03-01T03:12:41.561Z,31.35
2023-03-01T03:15:09.795Z,26.00
2023-03-01T03:17:40.453Z,34.95
2023-03-01T03:22:34.968Z,27.77
2023-03-01T03:25:02.011Z,27.42
2023-03-01T03:27:30.058Z,28.95
2023-03-01T03:29:57.174Z,24.88
2023-03-01T03:32:24.266Z,26.25
2023-03-01T03:34:51.403Z,29.67
2023-03-01T03:37:37.112Z,28.65
2023-03-01T03:40:04.514Z,29.73
2023-03-01T03:42:31.546Z,29.23
2023-03-01T03:44:58.598Z,25.58
2023-03-01T03:47:25.650Z,29.30
2023-03-01T03:49:52.661Z,29.63
2023-03-01T03:52:19.690Z,27.02
2023-03-01T03:54:46.693Z,25.30
2023-03-01T03:57:13.740Z,32.70
2023-03-01T03:59:40.838Z,25.48
2023-03-01T04:02:09.782Z,28.75
2023-03-01T04:04:36.837Z,27.38
2023-03-01T04:07:03.826Z,31.65
2023-03-01T04:09:31.177Z,29.00
2023-03-01T04:11:58.201Z,35.28
2023-03-01T04:14:25.480Z,32.88
2023-03-01T04:16:52.522Z,31.05
2023-03-01T04:19:19.553Z,29.48
2023-03-01T04:21:46.740Z,33.17
2023-03-01T04:24:13.819Z,31.58
2023-03-01T04:26:40.832Z,29.10
2023-03-01T04:29:07.925Z,35.28
2023-03-01T04:31:35.106Z,31.25
2023-03-01T04:34:02.320Z,29.58
2023-03-01T04:36:30.223Z,28.45
2023-03-01T04:38:57.644Z,29.25
2023-03-01T04:41:25.498Z,29.42
2023-03-01T04:43:52.894Z,29.65
2023-03-01T04:46:20.862Z,30.50
2023-03-01T04:48:48.273Z,31.27
2023-03-01T04:51:15.586Z,33.03
2023-03-01T04:53:42.771Z,30.23
2023-03-01T04:56:09.912Z,30.88
2023-03-01T04:58:37.069Z,28.35
2023-03-01T05:01:15.903Z,31.65
2023-03-01T05:03:46.391Z,33.17
2023-03-01T05:08:40.844Z,30.50
2023-03-01T05:11:09.876Z,32.00
2023-03-01T05:13:37.930Z,30.48
2023-03-01T05:16:05.470Z,27.35
2023-03-01T05:18:33.113Z,34.10
2023-03-01T05:21:10.551Z,33.20
2023-03-01T05:23:37.740Z,31.80
2023-03-01T05:26:06.230Z,30.60
2023-03-01T05:28:34.549Z,30.60
2023-03-01T05:31:01.690Z,30.23
2023-03-01T05:33:28.809Z,31.20
2023-03-01T05:35:56.235Z,33.03
2023-03-01T05:38:23.503Z,30.33
2023-03-01T05:40:50.664Z,31.05
2023-03-01T05:43:18.958Z,32.67
2023-03-01T05:45:46.290Z,35.47
2023-03-01T05:48:13.604Z,31.02
2023-03-01T05:50:44.169Z,34.90
2023-03-01T05:55:38.372Z,36.42
2023-03-01T05:58:06.363Z,35.40
2023-03-01T06:00:33.728Z,34.15
2023-03-01T06:03:01.490Z,35.42
2023-03-01T06:05:28.855Z,33.03
2023-03-01T06:07:55.955Z,33.20
2023-03-01T06:10:23.329Z,34.33
2023-03-01T06:12:50.355Z,36.00
2023-03-01T06:15:17.559Z,37.35
2023-03-01T06:17:46.893Z,34.22
2023-03-01T06:20:15.471Z,37.00
2023-03-01T06:22:42.841Z,32.83
2023-03-01T06:25:10.137Z,31.23
2023-03-01T06:27:37.431Z,34.35
2023-03-01T06:30:04.836Z,34.97
2023-03-01T06:32:32.688Z,38.78
2023-03-01T06:34:59.814Z,32.45
2023-03-01T06:37:27.237Z,34.28
2023-03-01T06:39:54.283Z,34.63
2023-03-01T06:42:21.464Z,28.85
2023-03-01T06:44:48.597Z,30.63
2023-03-01T06:47:15.800Z,35.63
2023-03-01T06:49:42.996Z,33.20
2023-03-01T06:52:10.372Z,33.30
2023-03-01T06:54:37.393Z,33.83
2023-03-01T06:57:04.442Z,35.55
2023-03-01T06:59:32.388Z,29.00
2023-03-01T07:01:59.677Z,30.73
2023-03-01T07:04:29.466Z,33.22
2023-03-01T07:06:56.571Z,34.88
2023-03-01T07:09:24.053Z,32.30
2023-03-01T07:11:51.149Z,32.50
2023-03-01T07:14:18.300Z,32.05
2023-03-01T07:16:45.398Z,31.08
2023-03-01T07:19:12.462Z,31.33
2023-03-01T07:21:40.693Z,29.83
2023-03-01T07:24:10.608Z,32.35
2023-03-01T07:26:37.663Z,29.85
2023-03-01T07:29:05.131Z,30.95
2023-03-01T07:31:32.215Z,27.73
2023-03-01T07:33:59.308Z,27.75
2023-03-01T07:36:26.501Z,31.55
2023-03-01T07:38:53.636Z,28.98
2023-03-01T07:41:20.711Z,29.55
2023-03-01T07:43:47.774Z,31.25
2023-03-01T07:46:14.872Z,28.75
2023-03-01T07:48:41.958Z,30.45
2023-03-01T07:51:09.165Z,27.63
2023-03-01T07:53:36.343Z,35.70
2023-03-01T07:56:07.185Z,28.63
2023-03-01T07:58:37.739Z,26.95
2023-03-01T08:03:31.822Z,29.52
2023-03-01T08:06:00.882Z,28.42
2023-03-01T08:08:28.061Z,26.92
2023-03-01T08:10:57.762Z,26.98
2023-03-01T08:13:24.846Z,28.47
2023-03-01T08:15:51.936Z,27.95
2023-03-01T08:18:19.518Z,27.75
2023-03-01T08:20:46.607Z,28.50
2023-03-01T08:23:13.705Z,27.50
2023-03-01T08:25:40.922Z,23.13
2023-03-01T08:28:08.077Z,29.13
2023-03-01T08:30:35.492Z,28.38
2023-03-01T08:33:02.653Z,29.02
2023-03-01T08:35:29.793Z,28.92
2023-03-01T08:37:57.075Z,26.20
2023-03-01T08:40:24.130Z,22.98
2023-03-01T08:42:51.197Z,24.92
2023-03-01T08:45:19.439Z,23.40
2023-03-01T08:47:46.547Z,25.65
2023-03-01T08:50:13.668Z,22.73
2023-03-01T08:52:40.764Z,23.55
2023-03-01T08:55:08.240Z,25.85
2023-03-01T08:57:35.304Z,22.63
2023-03-01T09:00:02.449Z,22.15
2023-03-01T09:02:29.639Z,25.48
2023-03-01T09:04:56.757Z,22.88
2023-03-01T09:07:28.957Z,20.08
2023-03-01T09:09:56.335Z,23.45
2023-03-01T09:12:23.480Z,23.65
2023-03-01T09:14:50.497Z,22.27
2023-03-01T09:17:17.601Z,21.08
2023-03-01T09:19:44.717Z,22.52
2023-03-01T09:22:11.854Z,23.67
2023-03-01T09:24:38.944Z,21.60
2023-03-01T09:27:09.553Z,21.40
2023-03-01T09:32:03.678Z,22.92
2023-03-01T09:34:30.815Z,20.60
2023-03-01T09:36:59.385Z,19.98
2023-03-01T09:39:26.490Z,25.95
2023-03-01T09:42:02.887Z,21.27
2023-03-01T09:44:44.742Z,23.85
2023-03-01T09:47:18.256Z,21.70
2023-03-01T09:49:49.616Z,19.48
2023-03-01T09:52:25.384Z,20.08
2023-03-01T09:54:54.520Z,23.05
2023-03-01T09:57:40.444Z,21.98
2023-03-01T10:00:11.037Z,18.35
2023-03-01T10:05:07.473Z,20.77
2023-03-01T10:07:39.929Z,20.40
2023-03-01T10:10:08.495Z,16.08
2023-03-01T10:12:41.016Z,18.67
2023-03-01T10:15:11.314Z,20.42
2023-03-01T10:17:39.858Z,18.98
2023-03-01T10:20:15.127Z,22.48
2023-03-01T10:22:42.187Z,17.95
2023-03-01T10:25:10.351Z,19.00
2023-03-01T10:27:43.415Z,19.80
2023-03-01T10:30:21.343Z,15.75
2023-03-01T10:32:49.968Z,17.55
2023-03-01T10:35:24.333Z,15.60
2023-03-01T10:38:08.032Z,17.38
2023-03-01T10:40:35.484Z,15.10
2023-03-01T10:43:03.625Z,18.08
2023-03-01T10:45:30.833Z,15.60
2023-03-01T10:48:10.048Z,15.93
2023-03-01T10:50:40.340Z,15.13
2023-03-01T10:53:20.658Z,17.75
2023-03-01T10:55:47.734Z,16.45
2023-03-01T10:58:21.622Z,19.63
2023-03-01T11:00:48.730Z,14.45
2023-03-01T11:03:17.547Z,18.58
2023-03-01T11:05:55.658Z,21.05
2023-03-01T11:08:34.477Z,14.27
2023-03-01T11:11:05.497Z,16.73
2023-03-01T11:16:03.437Z,14.43
2023-03-01T11:18:46.206Z,14.32
2023-03-01T11:21:14.924Z,15.48
2023-03-01T11:23:42.263Z,16.15
2023-03-01T11:26:11.511Z,14.63
2023-03-01T11:28:39.477Z,12.77
2023-03-01T11:31:09.666Z,16.38
2023-03-01T11:33:45.311Z,15.55
2023-03-01T11:36:28.839Z,13.55
2023-03-01T11:38:55.895Z,25.08
2023-03-01T11:41:27.346Z,13.80
2023-03-01T11:44:01.649Z,22.52
2023-03-01T11:46:34.753Z,14.88
2023-03-01T11:49:08.056Z,16.63
2023-03-01T11:51:40.520Z,14.27
2023-03-01T11:54:26.304Z,15.75
2023-03-01T11:57:02.358Z,17.08
2023-03-01T11:59:43.514Z,15.52
2023-03-01T12:02:16.626Z,17.05
2023-03-01T12:05:05.310Z,16.48
2023-03-01T12:07:54.107Z,15.77
2023-03-01T12:10:22.236Z,14.30
2023-03-01T12:12:49.421Z,17.65
2023-03-01T12:15:35.113Z,18.63
2023-03-01T12:18:20.597Z,15.45
2023-03-01T12:21:03.406Z,15.43
2023-03-01T12:23:30.441Z,15.32
2023-03-01T12:26:09.803Z,14.68
2023-03-01T12:28:46.623Z,15.95
2023-03-01T12:31:13.812Z,18.38
2023-03-01T12:33:45.379Z,14.13
2023-03-01T12:36:25.699Z,15.88
2023-03-01T12:39:09.288Z,12.18
2023-03-01T12:41:55.170Z,20.40
2023-03-01T12:44:28.477Z,16.02
2023-03-01T12:46:58.543Z,13.32
2023-03-01T12:49:27.408Z,19.92
2023-03-01T12:52:15.359Z,13.95
2023-03-01T12:54:42.388Z,15.45
2023-03-01T12:57:13.253Z,14.30
2023-03-01T13:00:02.675Z,12.77
2023-03-01T13:02:34.665Z,12.95
2023-03-01T13:05:03.770Z,12.18
2023-03-01T13:07:38.132Z,15.55
2023-03-01T13:10:13.371Z,15.07
2023-03-01T13:12:43.470Z,14.73
2023-03-01T13:15:26.249Z,13.85
2023-03-01T13:17:53.992Z,11.90
2023-03-01T13:20:22.009Z,12.45
2023-03-01T13:22:54.628Z,12.20
2023-03-01T13:25:24.316Z,12.70
2023-03-01T13:27:52.914Z,12.13
2023-03-01T13:30:28.857Z,13.68
2023-03-01T13:32:58.847Z,16.38
2023-03-01T13:35:28.950Z,14.98
2023-03-01T13:37:56.027Z,17.00
2023-03-01T13:40:24.497Z,11.25
2023-03-01T13:43:03.131Z,13.90
2023-03-01T13:48:18.923Z,11.48
2023-03-01T13:50:57.011Z,15.63
2023-03-01T13:53:24.594Z,12.60
2023-03-01T13:55:59.969Z,11.95
2023-03-01T13:58:33.874Z,11.60
2023-03-01T14:01:05.088Z,14.32
2023-03-01T14:03:33.157Z,11.40
2023-03-01T14:06:15.929Z,12.57
2023-03-01T14:08:44.780Z,13.80
2023-03-01T14:11:14.908Z,13.43
2023-03-01T14:13:42.598Z,14.43
2023-03-01T14:16:09.791Z,13.43
2023-03-01T14:18:49.693Z,17.67
2023-03-01T14:21:16.710Z,12.23
2023-03-01T14:23:43.955Z,15.05
2023-03-01T14:26:13.068Z,16.02
2023-03-01T14:28:40.163Z,15.32
2023-03-01T14:31:26.220Z,15.57
2023-03-01T14:33:56.831Z,13.40
2023-03-01T14:38:50.907Z,14.07
2023-03-01T14:41:19.459Z,15.02
2023-03-01T14:43:48.568Z,16.90
2023-03-01T14:46:22.374Z,13.55
2023-03-01T14:48:56.317Z,14.57
2023-03-01T14:51:23.458Z,15.93
2023-03-01T14:53:51.571Z,13.63
2023-03-01T14:56:19.754Z,13.73
2023-03-01T14:58:49.738Z,15.02
2023-03-01T15:01:17.671Z,14.73
2023-03-01T15:03:45.521Z,11.55
2023-03-01T15:06:13.063Z,13.85
2023-03-01T15:08:42.782Z,12.40
2023-03-01T15:11:25.267Z,11.97
2023-03-01T15:13:52.816Z,13.05
2023-03-01T15:16:19.936Z,11.45
2023-03-01T15:18:50.277Z,13.55
2023-03-01T15:21:23.889Z,12.55
2023-03-01T15:23:53.284Z,11.60
2023-03-01T15:26:30.549Z,16.30
2023-03-01T15:28:59.120Z,12.90
2023-03-01T15:31:30.349Z,15.00
2023-03-01T15:34:21.204Z,14.05
2023-03-01T15:36:51.047Z,16.52
2023-03-01T15:39:29.274Z,12.02
2023-03-01T15:41:56.376Z,13.88
2023-03-01T15:44:29.971Z,13.32
2023-03-01T15:47:02.065Z,12.25
2023-03-01T15:49:33.345Z,14.20
2023-03-01T15:52:00.452Z,13.68
2023-03-01T15:54:27.818Z,15.85
2023-03-01T15:56:54.935Z,14.40
2023-03-01T15:59:23.136Z,13.50
2023-03-01T16:01:50.291Z,13.25
2023-03-01T16:04:24.350Z,13.18
2023-03-01T16:06:55.062Z,16.90
2023-03-01T16:11:49.438Z,12.55
2023-03-01T16:14:17.344Z,11.70
2023-03-01T16:16:45.008Z,12.70
2023-03-01T16:19:15.606Z,15.43
2023-03-01T16:24:10.460Z,17.17
2023-03-01T16:26:38.379Z,16.98
2023-03-01T16:29:05.548Z,17.75
2023-03-01T16:31:33.796Z,16.05
2023-03-01T16:34:01.305Z,16.33
2023-03-01T16:36:29.419Z,13.60
2023-03-01T16:38:57.064Z,15.70
2023-03-01T16:41:24.441Z,16.80
2023-03-01T16:43:51.578Z,15.50
2023-03-01T16:46:20.330Z,15.57
2023-03-01T16:48:47.564Z,16.08
2023-03-01T16:51:14.816Z,16.38
2023-03-01T16:53:41.988Z,14.25
2023-03-01T16:56:10.021Z,16.35
2023-03-01T16:58:37.579Z,15.85
2023-03-01T17:01:08.633Z,15.10
2023-03-01T17:03:35.878Z,13.95
2023-03-01T17:06:03.868Z,14.13
2023-03-01T17:08:30.895Z,17.85
2023-03-01T17:11:03.032Z,18.83
2023-03-01T17:13:30.119Z,14.82
2023-03-01T17:15:57.181Z,14.13
2023-03-01T17:18:25.084Z,13.65
2023-03-01T17:20:52.191Z,16.50
2023-03-01T17:23:19.217Z,15.63
2023-03-01T17:25:46.496Z,17.88
2023-03-01T17:28:14.641Z,16.23
2023-03-01T17:30:45.196Z,18.50
2023-03-01T17:35:39.424Z,18.02
2023-03-01T17:38:06.701Z,18.00
2023-03-01T17:40:33.927Z,17.63
2023-03-01T17:43:00.993Z,20.17
2023-03-01T17:45:28.099Z,19.88
2023-03-01T17:47:55.218Z,16.05
2023-03-01T17:50:22.363Z,18.13
2023-03-01T17:52:49.830Z,17.20
2023-03-01T17:55:16.908Z,14.90
2023-03-01T17:57:44.045Z,19.27
2023-03-01T18:00:11.734Z,16.02
2023-03-01T18:02:38.841Z,18.55
2023-03-01T18:05:06.074Z,18.73
2023-03-01T18:07:33.177Z,16.08
2023-03-01T18:10:00.205Z,17.17
2023-03-01T18:12:27.264Z,16.70
2023-03-01T18:14:54.308Z,15.65
2023-03-01T18:17:23.089Z,18.88
2023-03-01T18:19:51.080Z,16.37
2023-03-01T18:22:18.169Z,15.07
2023-03-01T18:24:45.257Z,19.40
2023-03-01T18:27:12.333Z,22.77
2023-03-01T18:29:39.389Z,18.95
2023-03-01T18:32:06.843Z,16.88
2023-03-01T18:34:34.990Z,16.70
2023-03-01T18:37:10.134Z,17.40
2023-03-01T18:39:37.703Z,23.05
2023-03-01T18:42:04.789Z,19.00
2023-03-01T18:44:31.849Z,19.25
2023-03-01T18:46:58.964Z,22.17
2023-03-01T18:49:26.345Z,18.73
2023-03-01T18:51:53.592Z,16.50
2023-03-01T18:54:20.717Z,19.15
2023-03-01T18:56:47.772Z,22.58
2023-03-01T18:59:14.805Z,22.00
2023-03-01T19:01:42.354Z,17.63
2023-03-01T19:04:10.880Z,19.92
2023-03-01T19:06:38.101Z,21.10
2023-03-01T19:09:05.461Z,22.30
2023-03-01T19:11:33.508Z,18.70
2023-03-01T19:14:00.808Z,16.27
2023-03-01T19:16:28.912Z,17.33
2023-03-01T19:18:56.866Z,18.73
2023-03-01T19:21:26.757Z,17.58
2023-03-01T19:23:53.925Z,18.70
2023-03-01T19:26:21.982Z,20.23
2023-03-01T19:28:49.075Z,20.80
2023-03-01T19:31:17.206Z,20.40
2023-03-01T19:33:44.397Z,18.45
2023-03-01T19:36:12.164Z,17.73
2023-03-01T19:38:39.512Z,20.73
2023-03-01T19:41:07.306Z,18.92
2023-03-01T19:43:35.030Z,16.75
2023-03-01T19:46:02.215Z,21.02
2023-03-01T19:48:29.466Z,16.63
2023-03-01T19:50:56.930Z,17.05
2023-03-01T19:53:24.831Z,19.42
2023-03-01T19:55:53.052Z,16.38
2023-03-01T19:58:20.189Z,18.88
2023-03-01T20:00:47.521Z,18.75
2023-03-01T20:03:14.752Z,21.73
2023-03-01T20:05:43.622Z,21.80
2023-03-01T20:08:10.782Z,19.10
2023-03-01T20:10:37.963Z,20.50
2023-03-01T20:13:05.042Z,20.48
2023-03-01T20:15:32.089Z,17.10
2023-03-01T20:17:59.262Z,19.45
2023-03-01T20:20:26.311Z,22.02
2023-03-01T20:22:53.367Z,18.55
2023-03-01T20:25:20.407Z,19.77
2023-03-01T20:27:47.768Z,20.75
2023-03-01T20:30:15.452Z,18.45
2023-03-01T20:32:42.626Z,22.90
2023-03-01T20:35:10.083Z,25.27
2023-03-01T20:37:37.300Z,20.63
2023-03-01T20:40:04.592Z,20.75
2023-03-01T20:42:31.787Z,18.95
2023-03-01T20:44:58.997Z,22.52
2023-03-01T20:47:26.233Z,21.20
2023-03-01T20:49:53.352Z,21.00
2023-03-01T20:52:20.396Z,22.45
2023-03-01T20:54:47.544Z,24.30
2023-03-01T20:57:14.634Z,23.75
2023-03-01T20:59:41.676Z,24.58
2023-03-01T21:02:08.787Z,24.60
2023-03-01T21:04:35.871Z,24.48
2023-03-01T21:07:02.896Z,21.27
2023-03-01T21:09:29.917Z,25.75
2023-03-01T21:11:57.705Z,22.30
2023-03-01T21:14:25.010Z,25.50
2023-03-01T21:16:52.103Z,21.77
2023-03-01T21:19:19.231Z,21.60
2023-03-01T21:21:46.240Z,25.08
2023-03-01T21:24:13.950Z,23.27
2023-03-01T21:26:41.007Z,27.80
2023-03-01T21:29:08.516Z,25.33
2023-03-01T21:31:35.767Z,24.55
2023-03-01T21:34:06.400Z,26.48
2023-03-01T21:39:02.124Z,23.58
2023-03-01T21:41:30.051Z,22.77
2023-03-01T21:43:57.477Z,22.60
2023-03-01T21:46:24.846Z,26.52
2023-03-01T21:48:52.406Z,22.73
2023-03-01T21:51:20.118Z,24.88
2023-03-01T21:53:47.177Z,26.35
2023-03-01T21:56:18.184Z,26.77
2023-03-01T21:58:45.309Z,25.88
2023-03-01T22:01:14.022Z,30.63
2023-03-01T22:03:46.877Z,22.60
2023-03-01T22:06:19.862Z,25.15
2023-03-01T22:08:55.183Z,24.60
2023-03-01T22:11:22.411Z,27.77
2023-03-01T22:13:52.015Z,26.13
2023-03-01T22:16:19.593Z,26.70
2023-03-01T22:18:46.803Z,25.77
2023-03-01T22:21:14.000Z,23.60
2023-03-01T22:23:41.188Z,27.52
2023-03-01T22:26:08.725Z,24.77
2023-03-01T22:28:35.811Z,27.80
2023-03-01T22:31:06.105Z,23.63
2023-03-01T22:33:33.233Z,26.48
2023-03-01T22:36:00.358Z,27.05
2023-03-01T22:38:27.493Z,30.50
2023-03-01T22:40:58.514Z,26.60
2023-03-01T22:43:25.694Z,27.02
2023-03-01T22:45:52.822Z,25.35
2023-03-01T22:48:19.910Z,26.58
2023-03-01T22:50:47.065Z,29.10
2023-03-01T22:53:14.303Z,26.27
2023-03-01T22:55:41.414Z,27.17
2023-03-01T22:58:08.639Z,23.52
2023-03-01T23:00:35.655Z,27.38
2023-03-01T23:03:02.828Z,25.00
2023-03-01T23:05:30.077Z,27.35
2023-03-01T23:07:57.261Z,24.38
2023-03-01T23:10:25.821Z,27.45
2023-03-01T23:12:55.046Z,26.50
2023-03-01T23:15:22.080Z,27.25
2023-03-01T23:17:49.167Z,25.27
2023-03-01T23:20:17.125Z,20.92
2023-03-01T23:22:44.328Z,23.92
2023-03-01T23:25:14.861Z,23.48
2023-03-01T23:27:42.176Z,23.00
2023-03-01T23:30:09.607Z,25.40
2023-03-01T23:32:40.705Z,28.90
2023-03-01T23:35:11.108Z,23.58
2023-03-01T23:37:38.164Z,24.00
2023-03-01T23:40:08.719Z,24.48
2023-03-01T23:45:02.876Z,24.85
2023-03-01T23:47:29.984Z,23.48
2023-03-01T23:49:57.401Z,21.00
2023-03-01T23:52:24.565Z,24.10
2023-03-01T23:54:52.000Z,22.65
2023-03-01T23:57:19.433Z,21.83
2023-03-01T23:59:46.544Z,24.05
